createdAt,value
2024-05-09T00:00:56.835Z,20.05
2024-05-09T00:04:01.003Z,21.86
2024-05-09T00:07:05.075Z,23.47
2024-05-09T00:10:14.704Z,24.69
2024-05-09T00:13:26.127Z,25.35
2024-05-09T00:16:32.925Z,25.47
2024-05-09T00:19:36.825Z,24.14
2024-05-09T00:22:40.746Z,23.90
2024-05-09T00:25:46.155Z,24.18
2024-05-09T00:28:50.158Z,24.70
2024-05-09T00:31:53.839Z,26.75
2024-05-09T00:34:57.944Z,26.11
2024-05-09T00:38:02.316Z,25.85
2024-05-09T00:41:06.124Z,25.66
2024-05-09T00:44:10.064Z,25.68
2024-05-09T00:47:13.870Z,25.89
2024-05-09T00:50:22.764Z,23.73
2024-05-09T00:53:34.891Z,22.67
2024-05-09T00:56:38.855Z,21.62
2024-05-09T00:59:42.641Z,20.93
2024-05-09T01:02:46.215Z,20.22
2024-05-09T01:05:49.914Z,19.75
2024-05-09T01:08:53.656Z,19.54
2024-05-09T01:11:57.389Z,19.34
2024-05-09T01:15:00.902Z,19.01
2024-05-09T01:18:13.816Z,19.00
2024-05-09T01:21:17.896Z,18.95
2024-05-09T01:24:21.389Z,19.00
2024-05-09T01:27:25.311Z,18.85
2024-05-09T01:30:34.413Z,18.73
2024-05-09T01:33:40.698Z,18.18
2024-05-09T01:36:44.214Z,17.77
2024-05-09T01:39:47.756Z,17.65
2024-05-09T01:42:51.362Z,17.67
2024-05-09T01:45:55.082Z,17.73
2024-05-09T01:48:58.656Z,17.91
2024-05-09T01:52:02.195Z,18.10
2024-05-09T01:55:10.349Z,18.27
2024-05-09T01:58:14.938Z,18.07
2024-05-09T02:01:18.702Z,18.03
2024-05-09T02:04:22.480Z,18.12
2024-05-09T02:07:26.608Z,18.25
2024-05-09T02:10:32.796Z,18.30
2024-05-09T02:13:37.107Z,18.36
2024-05-09T02:16:40.688Z,18.49
2024-05-09T02:19:44.272Z,18.56
2024-05-09T02:22:47.773Z,18.56
2024-05-09T02:25:51.258Z,18.69
2024-05-09T02:28:54.769Z,18.74
2024-05-09T02:31:58.343Z,18.88
2024-05-09T02:35:02.091Z,19.17
2024-05-09T02:38:06.459Z,19.17
2024-05-09T02:41:11.214Z,19.36
2024-05-09T02:44:14.780Z,19.39
2024-05-09T02:47:18.451Z,19.44
2024-05-09T02:50:29.856Z,19.46
2024-05-09T02:53:40.767Z,19.53
2024-05-09T02:56:44.542Z,19.42
2024-05-09T02:59:48.769Z,19.20
2024-05-09T03:02:52.637Z,19.16
2024-05-09T03:05:56.259Z,19.16
2024-05-09T03:08:59.713Z,19.21
2024-05-09T03:12:03.491Z,19.15
2024-05-09T03:15:07.497Z,19.05
2024-05-09T03:18:12.325Z,19.25
2024-05-09T03:21:16.341Z,19.44
2024-05-09T03:24:19.809Z,19.76
2024-05-09T03:27:25.549Z,20.01
2024-05-09T03:30:36.769Z,20.45
2024-05-09T03:33:45.392Z,20.77
2024-05-09T03:36:49.083Z,20.94
2024-05-09T03:39:52.539Z,20.87
2024-05-09T03:42:56.080Z,21.03
2024-05-09T03:45:59.641Z,21.44
2024-05-09T03:49:03.264Z,21.88
2024-05-09T03:52:07.279Z,22.15
2024-05-09T03:55:10.815Z,22.33
2024-05-09T03:58:15.138Z,22.54
2024-05-09T04:01:18.862Z,22.69
2024-05-09T04:04:22.489Z,22.78
2024-05-09T04:07:26.059Z,22.82
2024-05-09T04:10:33.881Z,22.83
2024-05-09T04:13:38.461Z,22.82
2024-05-09T04:16:42.068Z,22.88
2024-05-09T04:19:45.655Z,22.88
2024-05-09T04:22:49.686Z,22.84
2024-05-09T04:25:53.435Z,22.76
2024-05-09T04:28:57.111Z,22.77
2024-05-09T04:32:00.817Z,22.81
2024-05-09T04:35:04.593Z,22.87
2024-05-09T04:38:09.083Z,23.03
2024-05-09T04:41:12.592Z,23.12
2024-05-09T04:44:16.386Z,23.27
2024-05-09T04:47:20.238Z,23.31
2024-05-09T04:50:33.506Z,23.35
2024-05-09T04:53:41.295Z,23.40
2024-05-09T04:56:44.953Z,23.46
2024-05-09T04:59:48.390Z,23.50
2024-05-09T05:02:52.201Z,23.52
2024-05-09T05:05:57.419Z,23.51
2024-05-09T05:09:02.301Z,23.51
2024-05-09T05:12:32.306Z,23.57
2024-05-09T05:15:37.531Z,23.68
2024-05-09T05:18:45.119Z,24.01
2024-05-09T05:21:48.765Z,23.77
2024-05-09T05:24:52.521Z,23.70
2024-05-09T05:27:56.363Z,23.55
2024-05-09T05:30:59.771Z,23.57
2024-05-09T05:34:03.414Z,23.57
2024-05-09T05:37:07.063Z,23.62
2024-05-09T05:40:14.641Z,23.67
2024-05-09T05:43:21.271Z,23.72
2024-05-09T05:46:24.931Z,23.72
2024-05-09T05:49:28.699Z,23.67
2024-05-09T05:52:32.245Z,23.64
2024-05-09T05:55:36.154Z,23.57
2024-05-09T05:58:40.027Z,23.59
2024-05-09T06:01:43.609Z,23.69
2024-05-09T06:04:47.185Z,23.73
2024-05-09T06:07:50.736Z,23.78
2024-05-09T06:10:54.354Z,23.78
2024-05-09T06:13:58.007Z,23.77
2024-05-09T06:17:01.729Z,23.81
2024-05-09T06:20:11.046Z,23.78
2024-05-09T06:23:16.894Z,23.72
2024-05-09T06:26:20.491Z,23.67
2024-05-09T06:29:24.178Z,23.67
2024-05-09T06:32:28.356Z,23.42
2024-05-09T06:35:32.034Z,23.11
2024-05-09T06:38:35.653Z,23.04
2024-05-09T06:41:39.346Z,23.09
2024-05-09T06:44:43.025Z,23.09
2024-05-09T06:47:46.774Z,23.02
2024-05-09T06:50:51.003Z,22.93
2024-05-09T06:53:55.692Z,22.87
2024-05-09T06:56:59.301Z,22.82
2024-05-09T07:00:03.726Z,22.85
2024-05-09T07:03:11.101Z,22.92
2024-05-09T07:06:15.982Z,22.52
2024-05-09T07:09:20.781Z,22.51
2024-05-09T07:12:25.567Z,22.64
2024-05-09T07:15:29.271Z,22.75
2024-05-09T07:18:32.954Z,22.83
2024-05-09T07:21:36.790Z,22.80
2024-05-09T07:24:40.224Z,22.84
2024-05-09T07:27:43.681Z,22.93
2024-05-09T07:30:47.195Z,23.02
2024-05-09T07:33:51.051Z,23.00
2024-05-09T07:36:54.595Z,23.07
2024-05-09T07:39:58.177Z,23.16
2024-05-09T07:43:01.678Z,23.20
2024-05-09T07:47:04.495Z,23.05
2024-05-09T07:53:33.279Z,23.04
2024-05-09T07:56:00.860Z,23.07
2024-05-09T07:59:04.715Z,23.13
2024-05-09T08:02:08.679Z,23.20
2024-05-09T08:05:12.499Z,23.22
2024-05-09T08:08:16.233Z,23.33
2024-05-09T08:11:21.241Z,23.31
2024-05-09T08:14:24.785Z,23.16
2024-05-09T08:17:28.660Z,23.12
2024-05-09T08:20:35.244Z,23.13
2024-05-09T08:23:40.310Z,23.12
2024-05-09T08:26:43.775Z,22.92
2024-05-09T08:29:47.750Z,22.82
2024-05-09T08:32:51.515Z,22.71
2024-05-09T08:35:55.180Z,22.59
2024-05-09T08:38:58.727Z,22.64
2024-05-09T08:42:03.303Z,22.98
2024-05-09T08:45:07.536Z,23.16
2024-05-09T08:48:11.232Z,23.37
2024-05-09T08:51:15.439Z,23.26
2024-05-09T08:54:20.564Z,23.20
2024-05-09T08:57:24.379Z,23.20
2024-05-09T09:00:36.327Z,23.36
2024-05-09T09:03:42.320Z,23.51
2024-05-09T09:06:46.142Z,23.67
2024-05-09T09:09:51.371Z,23.69
2024-05-09T09:13:01.346Z,23.60
2024-05-09T09:16:05.109Z,23.47
2024-05-09T09:19:09.020Z,23.37
2024-05-09T09:22:13.137Z,23.25
2024-05-09T09:25:17.004Z,23.35
2024-05-09T09:28:24.294Z,23.38
2024-05-09T09:31:27.915Z,23.15
2024-05-09T09:34:35.054Z,22.96
2024-05-09T09:37:39.547Z,22.79
2024-05-09T09:40:49.639Z,22.70
2024-05-09T09:43:55.431Z,22.55
2024-05-09T09:47:03.987Z,22.45
2024-05-09T09:50:14.225Z,22.26
2024-05-09T09:53:20.951Z,22.15
2024-05-09T09:56:26.326Z,22.06
2024-05-09T09:59:31.157Z,21.99
2024-05-09T10:02:34.712Z,21.70
2024-05-09T10:05:39.877Z,21.48
2024-05-09T10:08:47.692Z,21.30
2024-05-09T10:11:59.675Z,21.20
2024-05-09T10:15:10.924Z,21.09
2024-05-09T10:18:15.690Z,20.95
2024-05-09T10:21:20.453Z,20.80
2024-05-09T10:24:24.058Z,20.51
2024-05-09T10:27:31.316Z,20.39
2024-05-09T10:30:36.353Z,20.20
2024-05-09T10:33:49.192Z,20.10
2024-05-09T10:36:56.804Z,20.01
2024-05-09T10:40:01.306Z,19.92
2024-05-09T10:43:06.738Z,19.93
2024-05-09T10:46:12.089Z,19.94
2024-05-09T10:49:16.421Z,19.88
2024-05-09T10:52:24.341Z,19.77
2024-05-09T10:55:28.422Z,19.60
2024-05-09T10:58:32.817Z,19.53
2024-05-09T11:01:37.581Z,19.44
2024-05-09T11:04:41.539Z,19.41
2024-05-09T11:07:45.496Z,19.36
2024-05-09T11:10:50.719Z,19.34
2024-05-09T11:13:55.262Z,19.29
2024-05-09T11:17:01.111Z,19.29
2024-05-09T11:20:13.314Z,19.29
2024-05-09T11:23:22.694Z,19.23
2024-05-09T11:26:30.078Z,19.20
2024-05-09T11:29:41.074Z,19.16
2024-05-09T11:32:45.123Z,19.10
2024-05-09T11:35:48.982Z,19.07
2024-05-09T11:38:52.700Z,19.00
2024-05-09T11:41:56.197Z,18.96
2024-05-09T11:45:00.038Z,18.90
2024-05-09T11:48:04.975Z,18.86
2024-05-09T11:51:08.944Z,18.78
2024-05-09T11:54:12.920Z,18.72
2024-05-09T11:57:16.841Z,18.66
2024-05-09T12:00:29.556Z,18.54
2024-05-09T12:03:40.528Z,18.41
2024-05-09T12:06:46.347Z,18.22
2024-05-09T12:09:49.980Z,18.02
2024-05-09T12:12:54.838Z,17.79
2024-05-09T12:15:58.536Z,17.59
2024-05-09T12:19:02.514Z,17.46
2024-05-09T12:22:06.249Z,17.33
2024-05-09T12:25:10.255Z,17.22
2024-05-09T12:28:13.796Z,17.06
2024-05-09T12:31:17.548Z,16.97
2024-05-09T12:34:21.433Z,16.96
2024-05-09T12:37:25.115Z,16.96
2024-05-09T12:40:35.647Z,16.95
2024-05-09T12:43:41.981Z,16.88
2024-05-09T12:46:46.606Z,16.82
2024-05-09T12:49:50.194Z,16.72
2024-05-09T12:52:53.709Z,16.63
2024-05-09T12:56:01.823Z,16.52
2024-05-09T12:59:06.870Z,16.37
2024-05-09T13:02:10.751Z,16.29
2024-05-09T13:05:14.998Z,16.24
2024-05-09T13:08:18.823Z,16.20
2024-05-09T13:11:22.625Z,16.18
2024-05-09T13:14:26.612Z,16.15
2024-05-09T13:17:30.656Z,16.14
2024-05-09T13:20:35.919Z,16.12
2024-05-09T13:23:42.062Z,16.15
2024-05-09T13:26:45.686Z,16.15
2024-05-09T13:29:49.198Z,16.13
2024-05-09T13:32:53.434Z,16.08
2024-05-09T13:35:57.845Z,16.08
2024-05-09T13:39:01.586Z,16.10
2024-05-09T13:42:05.387Z,16.07
2024-05-09T13:45:09.566Z,16.09
2024-05-09T13:48:13.497Z,16.11
2024-05-09T13:51:17.125Z,16.18
2024-05-09T13:54:22.756Z,16.19
2024-05-09T13:57:27.418Z,16.16
2024-05-09T14:00:42.546Z,16.23
2024-05-09T14:03:51.430Z,16.33
2024-05-09T14:06:55.155Z,16.41
2024-05-09T14:09:58.749Z,16.43
2024-05-09T14:13:02.600Z,16.45
2024-05-09T14:16:07.283Z,16.49
2024-05-09T14:19:11.247Z,16.58
2024-05-09T14:22:14.924Z,16.68
2024-05-09T14:25:18.823Z,16.77
2024-05-09T14:28:26.919Z,16.75
2024-05-09T14:31:30.566Z,16.73
2024-05-09T14:34:34.199Z,16.70
2024-05-09T14:37:39.675Z,16.71
2024-05-09T14:40:44.261Z,16.75
2024-05-09T14:43:47.597Z,16.82
2024-05-09T14:46:51.276Z,16.80
2024-05-09T14:49:55.022Z,16.80
2024-05-09T14:52:58.641Z,16.84
2024-05-09T14:56:02.339Z,16.75
2024-05-09T14:59:10.109Z,16.61
2024-05-09T15:02:13.756Z,16.50
2024-05-09T15:05:17.467Z,16.47
2024-05-09T15:08:21.183Z,16.40
2024-05-09T15:11:25.227Z,16.40
2024-05-09T15:14:28.706Z,16.33
2024-05-09T15:17:33.004Z,16.29
2024-05-09T15:20:37.772Z,16.26
2024-05-09T15:23:41.560Z,16.22
2024-05-09T15:26:45.189Z,16.14
2024-05-09T15:29:48.804Z,16.07
2024-05-09T15:32:52.691Z,16.03
2024-05-09T15:35:56.297Z,15.95
2024-05-09T15:39:01.312Z,15.87
2024-05-09T15:42:05.158Z,15.77
2024-05-09T15:45:08.845Z,15.69
2024-05-09T15:48:12.577Z,15.62
2024-05-09T15:51:16.230Z,15.47
2024-05-09T15:54:21.085Z,15.42
2024-05-09T15:57:25.684Z,15.33
2024-05-09T16:00:36.941Z,15.21
2024-05-09T16:03:44.122Z,15.23
2024-05-09T16:06:48.939Z,15.17
2024-05-09T16:09:52.834Z,15.05
2024-05-09T16:12:56.451Z,14.95
2024-05-09T16:16:00.262Z,14.82
2024-05-09T16:19:03.813Z,14.74
2024-05-09T16:22:07.333Z,14.64
2024-05-09T16:25:10.978Z,14.60
2024-05-09T16:28:14.957Z,14.49
2024-05-09T16:31:18.632Z,14.39
2024-05-09T16:34:22.173Z,14.31
2024-05-09T16:37:27.524Z,14.23
2024-05-09T16:40:39.462Z,14.13
2024-05-09T16:43:44.660Z,14.01
2024-05-09T16:46:48.308Z,13.91
2024-05-09T16:49:52.949Z,13.80
2024-05-09T16:52:56.453Z,13.69
2024-05-09T16:55:59.977Z,13.61
2024-05-09T16:59:03.507Z,13.57
2024-05-09T17:02:07.599Z,13.52
2024-05-09T17:05:11.485Z,13.48
2024-05-09T17:08:16.464Z,13.44
2024-05-09T17:11:20.192Z,13.46
2024-05-09T17:14:23.600Z,13.40
2024-05-09T17:17:27.303Z,13.33
2024-05-09T17:20:34.632Z,13.24
2024-05-09T17:23:40.258Z,13.19
2024-05-09T17:26:43.865Z,13.23
2024-05-09T17:29:47.430Z,13.28
2024-05-09T17:32:50.929Z,13.33
2024-05-09T17:35:54.466Z,13.39
2024-05-09T17:38:57.944Z,13.43
2024-05-09T17:42:01.364Z,13.47
2024-05-09T17:45:05.035Z,13.44
2024-05-09T17:48:10.795Z,13.46
2024-05-09T17:51:15.054Z,13.46
2024-05-09T17:54:18.580Z,13.48
2024-05-09T17:57:22.619Z,13.44
2024-05-09T18:00:37.371Z,13.44
2024-05-09T18:03:44.500Z,13.32
2024-05-09T18:06:48.182Z,13.21
2024-05-09T18:09:51.636Z,13.16
2024-05-09T18:12:55.217Z,13.07
2024-05-09T18:15:58.884Z,12.99
2024-05-09T18:19:02.786Z,12.87
2024-05-09T18:22:06.615Z,12.77
2024-05-09T18:25:11.698Z,12.71
2024-05-09T18:28:16.141Z,12.59
2024-05-09T18:31:19.981Z,12.48
2024-05-09T18:34:23.602Z,12.32
2024-05-09T18:37:27.603Z,12.22
2024-05-09T18:40:35.341Z,12.16
2024-05-09T18:43:45.194Z,12.04
2024-05-09T18:46:52.234Z,11.94
2024-05-09T18:49:55.753Z,11.88
2024-05-09T18:52:59.379Z,11.85
2024-05-09T18:56:02.796Z,11.77
2024-05-09T18:59:06.438Z,11.70
2024-05-09T19:02:10.602Z,11.66
2024-05-09T19:05:14.365Z,11.58
2024-05-09T19:08:17.985Z,11.50
2024-05-09T19:11:21.651Z,11.46
2024-05-09T19:14:26.173Z,11.38
2024-05-09T19:17:30.795Z,11.30
2024-05-09T19:20:36.878Z,11.23
2024-05-09T19:23:47.106Z,11.16
2024-05-09T19:26:56.841Z,11.01
2024-05-09T19:30:00.316Z,10.92
2024-05-09T19:33:04.047Z,10.86
2024-05-09T19:36:08.209Z,10.83
2024-05-09T19:39:12.327Z,10.73
2024-05-09T19:42:15.950Z,10.57
2024-05-09T19:45:19.435Z,10.46
2024-05-09T19:48:23.324Z,10.39
2024-05-09T19:51:26.801Z,10.33
2024-05-09T19:54:30.236Z,10.27
2024-05-09T19:57:33.818Z,10.13
2024-05-09T20:00:41.475Z,10.07
2024-05-09T20:03:46.959Z,10.00
2024-05-09T20:06:50.550Z,9.90
2024-05-09T20:09:54.082Z,9.79
2024-05-09T20:12:57.677Z,9.73
2024-05-09T20:16:02.174Z,9.65
2024-05-09T20:19:06.182Z,9.60
2024-05-09T20:22:10.113Z,9.56
2024-05-09T20:25:13.771Z,9.52
2024-05-09T20:28:17.500Z,9.50
2024-05-09T20:31:24.875Z,9.44
2024-05-09T20:34:28.544Z,9.44
2024-05-09T20:37:32.116Z,9.46
2024-05-09T20:40:38.613Z,9.42
2024-05-09T20:43:43.166Z,9.42
2024-05-09T20:46:47.104Z,9.47
2024-05-09T20:49:51.880Z,9.50
2024-05-09T20:55:58.308Z,9.42
2024-05-09T20:59:01.809Z,9.33
2024-05-09T21:02:05.736Z,9.26
2024-05-09T21:05:10.865Z,9.28
2024-05-09T21:08:14.703Z,9.21
2024-05-09T21:11:18.268Z,9.11
2024-05-09T21:14:21.812Z,9.08
2024-05-09T21:17:25.522Z,9.06
2024-05-09T21:20:31.673Z,9.05
2024-05-09T21:23:38.210Z,9.02
2024-05-09T21:26:41.701Z,8.99
2024-05-09T21:29:45.175Z,8.90
2024-05-09T21:32:49.238Z,8.84
2024-05-09T21:35:53.003Z,8.73
2024-05-09T21:38:56.517Z,8.51
2024-05-09T21:42:02.599Z,8.32
2024-05-09T21:45:07.039Z,8.15
2024-05-09T21:48:10.557Z,8.01
2024-05-09T21:51:15.240Z,7.92
2024-05-09T21:54:18.671Z,7.74
2024-05-09T21:57:22.710Z,7.59
2024-05-09T22:00:34.498Z,7.45
2024-05-09T22:03:41.161Z,7.33
2024-05-09T22:06:44.839Z,7.20
2024-05-09T22:09:48.586Z,7.02
2024-05-09T22:12:52.295Z,6.85
2024-05-09T22:15:55.894Z,6.69
2024-05-09T22:18:59.488Z,6.57
2024-05-09T22:22:03.168Z,6.45
2024-05-09T22:25:07.172Z,6.38
2024-05-09T22:28:10.864Z,6.28
2024-05-09T22:31:14.443Z,6.20
2024-05-09T22:34:18.052Z,6.11
2024-05-09T22:37:21.906Z,6.01
2024-05-09T22:40:37.911Z,5.90
2024-05-09T22:43:49.512Z,5.83
2024-05-09T22:46:53.058Z,5.74
2024-05-09T22:49:56.615Z,5.71
2024-05-09T22:53:00.031Z,5.67
2024-05-09T22:56:03.523Z,5.58
2024-05-09T22:59:07.866Z,5.50
2024-05-09T23:02:11.558Z,5.47
2024-05-09T23:05:15.619Z,5.42
2024-05-09T23:08:19.266Z,5.41
2024-05-09T23:11:22.798Z,5.41
2024-05-09T23:14:26.357Z,5.43
2024-05-09T23:17:30.214Z,5.43
2024-05-09T23:20:38.232Z,5.38
2024-05-09T23:23:43.858Z,5.38
2024-05-09T23:26:47.397Z,5.37
2024-05-09T23:29:50.951Z,5.34
2024-05-09T23:32:54.566Z,5.31
2024-05-09T23:35:58.240Z,5.27
2024-05-09T23:39:01.881Z,5.26
2024-05-09T23:42:05.866Z,5.25
2024-05-09T23:45:09.784Z,5.25
2024-05-09T23:48:13.768Z,5.24
2024-05-09T23:51:17.723Z,5.22
2024-05-09T23:54:21.380Z,5.20
2024-05-09T23:57:24.796Z,5.15
